createdAt,value
2024-05-09T00:00:41.257Z,95495.41
2024-05-09T00:03:10.421Z,95489.06
2024-05-09T00:05:40.858Z,95485.28
2024-05-09T00:08:09.368Z,95492.72
2024-05-09T00:10:38.780Z,95486.47
2024-05-09T00:13:08.001Z,95475.53
2024-05-09T00:15:35.978Z,95485.03
2024-05-09T00:18:04.565Z,95483.97
2024-05-09T00:20:38.373Z,95479.25
2024-05-09T00:23:12.319Z,95481.91
2024-05-09T00:25:42.684Z,95470.59
2024-05-09T00:28:10.110Z,95478.91
2024-05-09T00:30:37.658Z,95456.53
2024-05-09T00:33:07.167Z,95466.53
2024-05-09T00:35:35.551Z,95453.72
2024-05-09T00:38:02.845Z,95465.25
2024-05-09T00:40:40.979Z,95464.16
2024-05-09T00:43:14.686Z,95446.28
2024-05-09T00:45:43.634Z,95450.97
2024-05-09T00:48:15.195Z,95453.53
2024-05-09T00:50:46.033Z,95442.00
2024-05-09T00:53:15.734Z,95450.41
2024-05-09T00:55:43.821Z,95458.00
2024-05-09T00:58:14.563Z,95440.38
2024-05-09T01:00:42.063Z,95453.66
2024-05-09T01:03:13.676Z,95451.75
2024-05-09T01:05:42.993Z,95443.94
2024-05-09T01:08:11.190Z,95448.19
2024-05-09T01:10:39.515Z,95447.50
2024-05-09T01:13:07.784Z,95449.44
2024-05-09T01:15:35.860Z,95450.31
2024-05-09T01:18:09.775Z,95442.16
2024-05-09T01:20:42.069Z,95446.25
2024-05-09T01:23:12.434Z,95461.97
2024-05-09T01:25:40.200Z,95449.75
2024-05-09T01:28:07.635Z,95448.13
2024-05-09T01:30:37.096Z,95446.84
2024-05-09T01:33:08.044Z,95450.56
2024-05-09T01:35:37.368Z,95448.13
2024-05-09T01:38:05.117Z,95445.66
2024-05-09T01:40:37.858Z,95442.66
2024-05-09T01:43:08.899Z,95443.88
2024-05-09T01:45:37.059Z,95448.91
2024-05-09T01:48:04.754Z,95445.16
2024-05-09T01:50:38.270Z,95439.75
2024-05-09T01:53:13.847Z,95436.63
2024-05-09T01:55:41.710Z,95455.25
2024-05-09T01:58:09.576Z,95458.03
2024-05-09T02:00:40.906Z,95452.72
2024-05-09T02:03:14.811Z,95449.47
2024-05-09T02:05:48.233Z,95447.00
2024-05-09T02:08:24.653Z,95447.16
2024-05-09T02:10:51.827Z,95447.22
2024-05-09T02:13:18.955Z,95447.53
2024-05-09T02:15:46.145Z,95449.25
2024-05-09T02:18:14.006Z,95454.31
2024-05-09T02:20:42.522Z,95450.97
2024-05-09T02:23:10.299Z,95447.84
2024-05-09T02:25:37.883Z,95454.06
2024-05-09T02:28:05.273Z,95443.28
2024-05-09T02:30:40.227Z,95445.94
2024-05-09T02:33:11.676Z,95443.84
2024-05-09T02:35:41.337Z,95450.31
2024-05-09T02:38:09.869Z,95450.06
2024-05-09T02:40:39.126Z,95436.03
2024-05-09T02:43:09.808Z,95442.97
2024-05-09T02:45:38.303Z,95440.25
2024-05-09T02:48:06.191Z,95439.47
2024-05-09T02:50:38.342Z,95443.88
2024-05-09T02:53:14.449Z,95441.00
2024-05-09T02:55:42.533Z,95431.69
2024-05-09T02:58:10.623Z,95433.44
2024-05-09T03:00:41.080Z,95432.91
2024-05-09T03:03:12.619Z,95431.19
2024-05-09T03:05:42.189Z,95433.09
2024-05-09T03:08:09.704Z,95435.44
2024-05-09T03:10:38.715Z,95439.28
2024-05-09T03:13:13.277Z,95421.88
2024-05-09T03:15:42.121Z,95431.84
2024-05-09T03:18:09.542Z,95428.41
2024-05-09T03:20:37.336Z,95430.34
2024-05-09T03:23:06.506Z,95433.13
2024-05-09T03:25:34.040Z,95437.75
2024-05-09T03:28:01.467Z,95431.72
2024-05-09T03:30:39.048Z,95434.38
2024-05-09T03:33:15.545Z,95425.22
2024-05-09T03:35:44.297Z,95431.72
2024-05-09T03:38:11.623Z,95438.97
2024-05-09T03:40:48.622Z,95425.06
2024-05-09T03:43:16.827Z,95426.41
2024-05-09T03:45:43.879Z,95421.56
2024-05-09T03:48:11.151Z,95425.03
2024-05-09T03:50:38.620Z,95426.06
2024-05-09T03:53:06.055Z,95424.38
2024-05-09T03:55:33.108Z,95423.16
2024-05-09T03:58:00.231Z,95431.03
2024-05-09T04:00:35.487Z,95426.25
2024-05-09T04:03:08.765Z,95442.00
2024-05-09T04:05:40.031Z,95440.53
2024-05-09T04:08:07.899Z,95439.47
2024-05-09T04:10:35.637Z,95437.59
2024-05-09T04:13:04.058Z,95441.31
2024-05-09T04:15:31.758Z,95444.66
2024-05-09T04:17:59.327Z,95453.69
2024-05-09T04:22:56.709Z,95442.47
2024-05-09T04:25:23.768Z,95454.38
2024-05-09T04:27:50.791Z,95460.97
2024-05-09T04:30:25.774Z,95449.38
2024-05-09T04:33:01.115Z,95443.75
2024-05-09T04:35:28.608Z,95451.47
2024-05-09T04:37:55.694Z,95452.41
2024-05-09T04:40:30.775Z,95465.50
2024-05-09T04:43:01.059Z,95456.44
2024-05-09T04:45:28.115Z,95461.44
2024-05-09T04:47:55.352Z,95465.16
2024-05-09T04:50:30.195Z,95462.75
2024-05-09T04:53:03.906Z,95459.69
2024-05-09T04:55:31.340Z,95469.28
2024-05-09T04:57:58.388Z,95476.72
2024-05-09T05:00:34.537Z,95468.69
2024-05-09T05:03:07.441Z,95477.63
2024-05-09T05:05:38.119Z,95472.72
2024-05-09T05:08:06.138Z,95473.38
2024-05-09T05:10:36.021Z,95479.56
2024-05-09T05:13:18.330Z,95478.28
2024-05-09T05:15:47.479Z,95466.59
2024-05-09T05:18:16.109Z,95466.63
2024-05-09T05:20:43.696Z,95468.91
2024-05-09T05:23:15.489Z,95475.78
2024-05-09T05:25:42.947Z,95474.72
2024-05-09T05:28:10.855Z,95479.47
2024-05-09T05:30:38.687Z,95484.88
2024-05-09T05:33:07.083Z,95479.72
2024-05-09T05:35:35.074Z,95477.69
2024-05-09T05:38:03.275Z,95488.44
2024-05-09T05:40:37.175Z,95484.81
2024-05-09T05:43:06.390Z,95485.84
2024-05-09T05:45:33.389Z,95480.22
2024-05-09T05:48:04.219Z,95487.69
2024-05-09T05:50:36.029Z,95483.53
2024-05-09T05:53:09.122Z,95487.50
2024-05-09T05:55:37.849Z,95493.00
2024-05-09T05:58:07.432Z,95493.28
2024-05-09T06:00:38.669Z,95496.75
2024-05-09T06:03:12.331Z,95494.56
2024-05-09T06:05:40.759Z,95495.19
2024-05-09T06:08:08.574Z,95482.72
2024-05-09T06:10:39.377Z,95495.91
2024-05-09T06:13:11.702Z,95490.03
2024-05-09T06:15:40.061Z,95488.53
2024-05-09T06:18:08.968Z,95497.34
2024-05-09T06:20:38.180Z,95477.97
2024-05-09T06:23:06.645Z,95492.25
2024-05-09T06:25:35.101Z,95493.53
2024-05-09T06:28:03.247Z,95503.22
2024-05-09T06:30:37.870Z,95505.81
2024-05-09T06:33:09.928Z,95513.28
2024-05-09T06:35:38.377Z,95503.81
2024-05-09T06:38:06.574Z,95505.72
2024-05-09T06:40:37.879Z,95513.91
2024-05-09T06:43:18.847Z,95505.06
2024-05-09T06:45:53.108Z,95493.38
2024-05-09T06:48:21.442Z,95498.13
2024-05-09T06:50:50.132Z,95495.75
2024-05-09T06:53:17.962Z,95500.16
2024-05-09T06:55:45.233Z,95508.84
2024-05-09T06:58:12.384Z,95502.72
2024-05-09T07:00:41.319Z,95513.63
2024-05-09T07:03:16.992Z,95516.41
2024-05-09T07:05:47.464Z,95506.19
2024-05-09T07:08:15.912Z,95510.00
2024-05-09T07:10:43.190Z,95520.25
2024-05-09T07:13:11.709Z,95514.50
2024-05-09T07:15:39.585Z,95510.28
2024-05-09T07:18:17.851Z,95520.78
2024-05-09T07:20:47.011Z,95522.94
2024-05-09T07:23:14.503Z,95519.13
2024-05-09T07:25:42.099Z,95520.81
2024-05-09T07:28:20.587Z,95521.41
2024-05-09T07:30:47.957Z,95512.94
2024-05-09T07:33:20.052Z,95506.63
2024-05-09T07:35:48.721Z,95511.41
2024-05-09T07:38:15.837Z,95505.38
2024-05-09T07:40:43.293Z,95508.94
2024-05-09T07:43:14.421Z,95495.44
2024-05-09T07:45:50.736Z,95505.47
2024-05-09T07:52:37.302Z,95505.50
2024-05-09T07:53:47.244Z,95494.38
2024-05-09T07:56:18.298Z,95494.03
2024-05-09T07:58:46.529Z,95499.19
2024-05-09T08:01:13.721Z,95498.84
2024-05-09T08:03:41.033Z,95509.16
2024-05-09T08:06:08.223Z,95507.78
2024-05-09T08:08:35.261Z,95504.72
2024-05-09T08:11:02.858Z,95510.94
2024-05-09T08:13:29.981Z,95516.41
2024-05-09T08:15:57.176Z,95481.72
2024-05-09T08:18:24.343Z,95502.69
2024-05-09T08:20:52.158Z,95505.41
2024-05-09T08:23:19.174Z,95505.72
2024-05-09T08:25:46.247Z,95511.69
2024-05-09T08:28:13.445Z,95518.66
2024-05-09T08:30:40.739Z,95518.13
2024-05-09T08:33:08.309Z,95488.28
2024-05-09T08:35:36.082Z,95504.59
2024-05-09T08:38:04.589Z,95491.22
2024-05-09T08:40:35.763Z,95495.53
2024-05-09T08:43:12.303Z,95496.19
2024-05-09T08:45:43.930Z,95491.19
2024-05-09T08:48:15.518Z,95504.38
2024-05-09T08:50:44.805Z,95500.78
2024-05-09T08:53:12.917Z,95507.94
2024-05-09T08:55:43.296Z,95486.53
2024-05-09T08:58:16.647Z,95488.31
2024-05-09T09:00:45.204Z,95483.22
2024-05-09T09:03:18.905Z,95512.41
2024-05-09T09:06:14.652Z,95514.47
2024-05-09T09:08:41.891Z,95489.22
2024-05-09T09:11:08.918Z,95494.06
2024-05-09T09:13:35.966Z,95505.41
2024-05-09T09:16:04.112Z,95473.72
2024-05-09T09:18:32.952Z,95453.88
2024-05-09T09:21:01.011Z,95516.69
2024-05-09T09:23:30.221Z,95498.50
2024-05-09T09:26:00.861Z,95518.91
2024-05-09T09:28:28.255Z,95492.16
2024-05-09T09:31:01.593Z,95469.41
2024-05-09T09:33:31.720Z,95507.25
2024-05-09T09:35:59.365Z,95492.16
2024-05-09T09:38:29.029Z,95461.47
2024-05-09T09:40:56.156Z,95496.97
2024-05-09T09:43:23.889Z,95473.41
2024-05-09T09:45:53.427Z,95474.00
2024-05-09T09:48:22.899Z,95454.47
2024-05-09T09:50:52.656Z,95495.41
2024-05-09T09:53:19.878Z,95492.19
2024-05-09T09:55:48.447Z,95487.66
2024-05-09T09:58:17.628Z,95482.56
2024-05-09T10:00:45.624Z,95522.16
2024-05-09T10:03:13.134Z,95487.31
2024-05-09T10:05:43.253Z,95481.19
2024-05-09T10:08:13.935Z,95501.34
2024-05-09T10:10:46.754Z,95450.13
2024-05-09T10:13:14.002Z,95446.53
2024-05-09T10:15:59.242Z,95491.06
2024-05-09T10:18:36.700Z,95495.09
2024-05-09T10:21:16.186Z,95482.78
2024-05-09T10:24:00.786Z,95489.84
2024-05-09T10:26:38.474Z,95482.09
2024-05-09T10:29:15.646Z,95497.97
2024-05-09T10:31:44.617Z,95459.00
2024-05-09T10:34:20.652Z,95493.63
2024-05-09T10:36:55.221Z,95479.28
2024-05-09T10:39:22.598Z,95470.50
2024-05-09T10:41:50.098Z,95477.38
2024-05-09T10:44:18.596Z,95481.56
2024-05-09T10:46:46.427Z,95461.28
2024-05-09T10:49:17.175Z,95515.19
2024-05-09T10:51:45.398Z,95464.41
2024-05-09T10:54:12.524Z,95458.47
2024-05-09T10:56:39.645Z,95474.34
2024-05-09T10:59:06.789Z,95466.97
2024-05-09T11:01:33.887Z,95487.19
2024-05-09T11:04:03.854Z,95471.03
2024-05-09T11:06:31.180Z,95430.00
2024-05-09T11:08:58.358Z,95487.22
2024-05-09T11:11:26.648Z,95483.16
2024-05-09T11:13:53.727Z,95466.50
2024-05-09T11:16:21.570Z,95439.25
2024-05-09T11:18:58.570Z,95479.06
2024-05-09T11:21:26.250Z,95473.13
2024-05-09T11:23:53.466Z,95486.63
2024-05-09T11:26:22.331Z,95475.50
2024-05-09T11:28:51.037Z,95477.34
2024-05-09T11:31:18.678Z,95474.56
2024-05-09T11:33:47.014Z,95473.25
2024-05-09T11:36:14.673Z,95483.22
2024-05-09T11:38:41.779Z,95453.47
2024-05-09T11:41:08.857Z,95458.88
2024-05-09T11:43:35.901Z,95458.22
2024-05-09T11:46:03.824Z,95473.50
2024-05-09T11:48:32.117Z,95429.81
2024-05-09T11:50:59.560Z,95474.47
2024-05-09T11:53:26.681Z,95500.69
2024-05-09T11:55:54.041Z,95483.94
2024-05-09T11:58:23.115Z,95478.59
2024-05-09T12:00:50.503Z,95416.38
2024-05-09T12:03:18.534Z,95408.03
2024-05-09T12:05:45.828Z,95438.06
2024-05-09T12:08:13.330Z,95406.34
2024-05-09T12:10:40.797Z,95436.41
2024-05-09T12:13:08.247Z,95443.97
2024-05-09T12:15:37.929Z,95439.28
2024-05-09T12:18:07.307Z,95449.41
2024-05-09T12:20:38.250Z,95458.25
2024-05-09T12:23:09.385Z,95416.16
2024-05-09T12:25:40.788Z,95440.19
2024-05-09T12:28:08.835Z,95466.63
2024-05-09T12:30:40.140Z,95433.66
2024-05-09T12:33:12.739Z,95432.63
2024-05-09T12:35:44.068Z,95415.34
2024-05-09T12:38:15.365Z,95400.19
2024-05-09T12:40:43.028Z,95416.47
2024-05-09T12:43:11.458Z,95356.91
2024-05-09T12:45:40.182Z,95391.81
2024-05-09T12:48:12.350Z,95418.97
2024-05-09T12:50:40.853Z,95392.66
2024-05-09T12:53:08.269Z,95403.16
2024-05-09T12:55:44.310Z,95410.59
2024-05-09T12:58:22.374Z,95402.81
2024-05-09T13:00:51.836Z,95410.31
2024-05-09T13:03:19.387Z,95420.00
2024-05-09T13:05:46.887Z,95438.81
2024-05-09T13:08:14.360Z,95441.72
2024-05-09T13:10:42.172Z,95454.69
2024-05-09T13:13:10.895Z,95445.25
2024-05-09T13:15:39.236Z,95441.88
2024-05-09T13:18:07.359Z,95422.88
2024-05-09T13:20:36.773Z,95392.81
2024-05-09T13:23:07.219Z,95413.94
2024-05-09T13:25:35.593Z,95429.88
2024-05-09T13:28:04.256Z,95440.25
2024-05-09T13:30:39.230Z,95430.25
2024-05-09T13:33:13.711Z,95425.50
2024-05-09T13:35:46.897Z,95398.78
2024-05-09T13:38:17.649Z,95418.16
2024-05-09T13:40:45.897Z,95378.53
2024-05-09T13:43:13.410Z,95388.19
2024-05-09T13:45:40.674Z,95392.13
2024-05-09T13:48:10.011Z,95386.06
2024-05-09T13:50:37.621Z,95405.56
2024-05-09T13:53:06.923Z,95430.78
2024-05-09T13:55:37.359Z,95404.50
2024-05-09T13:58:04.838Z,95390.19
2024-05-09T14:00:42.628Z,95403.72
2024-05-09T14:03:15.893Z,95407.41
2024-05-09T14:05:43.708Z,95373.19
2024-05-09T14:08:11.614Z,95391.47
2024-05-09T14:10:44.710Z,95378.59
2024-05-09T14:13:13.221Z,95392.16
2024-05-09T14:15:41.313Z,95381.00
2024-05-09T14:18:12.375Z,95401.00
2024-05-09T14:20:42.702Z,95381.56
2024-05-09T14:23:09.983Z,95362.31
2024-05-09T14:25:43.238Z,95378.69
2024-05-09T14:28:12.520Z,95329.50
2024-05-09T14:30:40.431Z,95328.25
2024-05-09T14:33:08.878Z,95339.34
2024-05-09T14:35:38.582Z,95319.63
2024-05-09T14:38:07.761Z,95348.88
2024-05-09T14:40:41.719Z,95311.06
2024-05-09T14:43:12.722Z,95375.50
2024-05-09T14:45:40.622Z,95365.03
2024-05-09T14:48:08.535Z,95349.50
2024-05-09T14:50:38.826Z,95357.88
2024-05-09T14:53:11.359Z,95356.84
2024-05-09T14:55:40.506Z,95337.47
2024-05-09T14:58:13.171Z,95343.72
2024-05-09T15:00:46.270Z,95345.19
2024-05-09T15:03:18.211Z,95333.38
2024-05-09T15:05:45.685Z,95316.59
2024-05-09T15:08:12.776Z,95320.06
2024-05-09T15:10:40.105Z,95339.72
2024-05-09T15:13:09.659Z,95319.53
2024-05-09T15:15:38.459Z,95332.09
2024-05-09T15:18:06.409Z,95337.69
2024-05-09T15:20:36.343Z,95329.13
2024-05-09T15:23:06.215Z,95289.34
2024-05-09T15:25:34.554Z,95307.38
2024-05-09T15:28:01.787Z,95322.59
2024-05-09T15:30:32.130Z,95298.94
2024-05-09T15:33:03.370Z,95287.94
2024-05-09T15:35:33.286Z,95310.00
2024-05-09T15:38:03.022Z,95281.56
2024-05-09T15:40:37.757Z,95302.69
2024-05-09T15:43:08.692Z,95311.25
2024-05-09T15:45:36.901Z,95285.72
2024-05-09T15:48:04.733Z,95291.94
2024-05-09T15:50:37.609Z,95288.50
2024-05-09T15:53:09.223Z,95305.41
2024-05-09T15:55:37.088Z,95314.47
2024-05-09T15:58:05.641Z,95306.28
2024-05-09T16:00:38.099Z,95270.53
2024-05-09T16:03:13.974Z,95299.47
2024-05-09T16:05:44.912Z,95273.91
2024-05-09T16:08:13.259Z,95258.75
2024-05-09T16:10:44.598Z,95281.50
2024-05-09T16:13:13.282Z,95304.31
2024-05-09T16:15:40.835Z,95278.25
2024-05-09T16:18:08.242Z,95247.34
2024-05-09T16:20:40.117Z,95270.25
2024-05-09T16:23:10.392Z,95243.19
2024-05-09T16:25:39.752Z,95272.41
2024-05-09T16:28:09.996Z,95273.00
2024-05-09T16:30:41.142Z,95245.00
2024-05-09T16:33:09.270Z,95255.06
2024-05-09T16:35:37.589Z,95226.78
2024-05-09T16:38:06.257Z,95232.94
2024-05-09T16:40:38.269Z,95243.06
2024-05-09T16:43:08.997Z,95281.25
2024-05-09T16:45:37.180Z,95268.56
2024-05-09T16:48:05.041Z,95279.81
2024-05-09T16:50:34.480Z,95275.25
2024-05-09T16:53:07.069Z,95230.34
2024-05-09T16:55:37.341Z,95247.50
2024-05-09T16:58:06.995Z,95265.69
2024-05-09T17:00:40.826Z,95266.50
2024-05-09T17:03:13.180Z,95276.28
2024-05-09T17:05:41.940Z,95257.88
2024-05-09T17:08:09.538Z,95242.81
2024-05-09T17:10:37.095Z,95254.00
2024-05-09T17:13:06.191Z,95252.47
2024-05-09T17:15:35.505Z,95275.25
2024-05-09T17:18:04.089Z,95275.19
2024-05-09T17:20:34.748Z,95252.63
2024-05-09T17:23:05.521Z,95260.25
2024-05-09T17:25:33.643Z,95232.69
2024-05-09T17:28:07.652Z,95243.06
2024-05-09T17:30:39.309Z,95256.28
2024-05-09T17:33:09.831Z,95262.38
2024-05-09T17:35:38.462Z,95267.66
2024-05-09T17:38:06.619Z,95247.69
2024-05-09T17:40:36.552Z,95262.53
2024-05-09T17:43:06.922Z,95202.28
2024-05-09T17:45:37.810Z,95182.41
2024-05-09T17:48:05.385Z,95227.41
2024-05-09T17:50:35.987Z,95243.34
2024-05-09T17:53:08.737Z,95211.88
2024-05-09T17:55:36.776Z,95249.06
2024-05-09T17:58:05.321Z,95257.53
2024-05-09T18:00:39.071Z,95271.97
2024-05-09T18:03:12.358Z,95287.94
2024-05-09T18:05:41.099Z,95289.66
2024-05-09T18:08:08.997Z,95290.22
2024-05-09T18:10:39.003Z,95293.78
2024-05-09T18:13:11.381Z,95292.16
2024-05-09T18:15:39.626Z,95303.59
2024-05-09T18:18:07.760Z,95288.72
2024-05-09T18:20:42.217Z,95308.38
2024-05-09T18:23:18.775Z,95307.13
2024-05-09T18:25:47.119Z,95297.66
2024-05-09T18:28:15.710Z,95304.03
2024-05-09T18:30:43.361Z,95320.88
2024-05-09T18:33:11.563Z,95311.53
2024-05-09T18:35:39.288Z,95290.16
2024-05-09T18:38:06.425Z,95307.56
2024-05-09T18:40:36.588Z,95307.88
2024-05-09T18:43:08.043Z,95313.66
2024-05-09T18:45:37.788Z,95311.41
2024-05-09T18:48:06.709Z,95317.38
2024-05-09T18:50:38.005Z,95305.81
2024-05-09T18:53:07.880Z,95304.25
2024-05-09T18:55:35.269Z,95314.19
2024-05-09T18:58:03.614Z,95310.09
2024-05-09T19:00:35.651Z,95313.09
2024-05-09T19:03:11.564Z,95313.56
2024-05-09T19:05:41.655Z,95321.09
2024-05-09T19:08:09.663Z,95321.94
2024-05-09T19:10:38.652Z,95325.25
2024-05-09T19:13:10.828Z,95323.81
2024-05-09T19:15:41.118Z,95321.81
2024-05-09T19:18:09.978Z,95318.75
2024-05-09T19:20:38.166Z,95343.44
2024-05-09T19:23:06.530Z,95340.06
2024-05-09T19:25:34.766Z,95335.31
2024-05-09T19:28:03.483Z,95345.81
2024-05-09T19:30:38.454Z,95340.34
2024-05-09T19:33:10.213Z,95341.75
2024-05-09T19:35:38.854Z,95338.22
2024-05-09T19:38:06.592Z,95339.03
2024-05-09T19:40:35.152Z,95345.81
2024-05-09T19:43:04.238Z,95349.28
2024-05-09T19:45:33.778Z,95333.69
2024-05-09T19:48:02.229Z,95348.97
2024-05-09T19:50:37.382Z,95342.69
2024-05-09T19:53:10.350Z,95347.09
2024-05-09T19:55:38.049Z,95352.84
2024-05-09T19:58:07.346Z,95351.34
2024-05-09T20:00:41.919Z,95345.88
2024-05-09T20:03:12.290Z,95346.69
2024-05-09T20:05:39.942Z,95353.94
2024-05-09T20:08:07.384Z,95348.75
2024-05-09T20:10:36.026Z,95348.13
2024-05-09T20:13:06.662Z,95351.16
2024-05-09T20:15:37.063Z,95361.88
2024-05-09T20:18:05.327Z,95352.38
2024-05-09T20:20:39.127Z,95359.16
2024-05-09T20:23:09.995Z,95344.72
2024-05-09T20:25:37.352Z,95341.25
2024-05-09T20:28:06.593Z,95348.56
2024-05-09T20:30:35.303Z,95348.19
2024-05-09T20:33:04.926Z,95358.19
2024-05-09T20:35:33.563Z,95349.88
2024-05-09T20:38:02.337Z,95351.84
2024-05-09T20:40:34.604Z,95355.91
2024-05-09T20:43:06.002Z,95351.97
2024-05-09T20:45:34.108Z,95355.59
2024-05-09T20:48:01.702Z,95348.75
2024-05-09T20:50:36.943Z,95357.44
2024-05-09T20:53:12.884Z,95369.28
2024-05-09T20:55:41.257Z,95355.94
2024-05-09T20:58:09.921Z,95354.66
2024-05-09T21:00:41.029Z,95346.56
2024-05-09T21:03:11.964Z,95338.06
2024-05-09T21:05:39.891Z,95361.81
2024-05-09T21:08:07.839Z,95349.50
2024-05-09T21:10:36.995Z,95349.84
2024-05-09T21:13:05.841Z,95338.84
2024-05-09T21:15:33.916Z,95351.31
2024-05-09T21:18:01.443Z,95363.16
2024-05-09T21:20:31.585Z,95365.13
2024-05-09T21:23:01.067Z,95357.69
2024-05-09T21:25:28.365Z,95351.19
2024-05-09T21:27:55.681Z,95358.16
2024-05-09T21:30:41.512Z,95350.44
2024-05-09T21:33:12.644Z,95355.50
2024-05-09T21:35:42.889Z,95343.41
2024-05-09T21:38:10.465Z,95345.47
2024-05-09T21:40:38.307Z,95351.91
2024-05-09T21:43:07.822Z,95343.50
2024-05-09T21:45:38.109Z,95350.94
2024-05-09T21:48:06.666Z,95347.66
2024-05-09T21:50:39.897Z,95353.00
2024-05-09T21:53:12.746Z,95341.44
2024-05-09T21:55:40.498Z,95341.81
2024-05-09T21:58:08.026Z,95361.19
2024-05-09T22:00:38.254Z,95352.03
2024-05-09T22:03:11.002Z,95362.75
2024-05-09T22:05:42.358Z,95346.19
2024-05-09T22:08:11.100Z,95357.28
2024-05-09T22:10:38.552Z,95351.25
2024-05-09T22:13:09.158Z,95349.56
2024-05-09T22:15:38.620Z,95347.88
2024-05-09T22:18:08.595Z,95341.81
2024-05-09T22:20:39.321Z,95340.22
2024-05-09T22:23:09.125Z,95332.16
2024-05-09T22:25:37.264Z,95339.41
2024-05-09T22:28:05.065Z,95351.25
2024-05-09T22:30:37.128Z,95344.69
2024-05-09T22:33:08.440Z,95339.84
2024-05-09T22:35:39.584Z,95343.53
2024-05-09T22:38:06.811Z,95341.03
2024-05-09T22:40:43.354Z,95336.09
2024-05-09T22:43:23.693Z,95333.97
2024-05-09T22:45:54.908Z,95348.94
2024-05-09T22:48:23.917Z,95344.75
2024-05-09T22:50:51.692Z,95334.97
2024-05-09T22:53:19.051Z,95340.13
2024-05-09T22:55:46.101Z,95332.16
2024-05-09T22:58:13.387Z,95338.94
2024-05-09T23:00:40.545Z,95326.25
2024-05-09T23:03:07.770Z,95335.50
2024-05-09T23:05:34.992Z,95332.03
2024-05-09T23:08:02.699Z,95340.22
2024-05-09T23:10:35.750Z,95330.09
2024-05-09T23:13:06.958Z,95319.88
2024-05-09T23:15:34.963Z,95323.50
2024-05-09T23:18:02.275Z,95338.44
2024-05-09T23:20:36.515Z,95327.69
2024-05-09T23:23:10.392Z,95329.81
2024-05-09T23:25:38.988Z,95316.38
2024-05-09T23:28:06.422Z,95307.38
2024-05-09T23:30:38.333Z,95322.19
2024-05-09T23:33:09.686Z,95305.75
2024-05-09T23:35:37.339Z,95290.25
2024-05-09T23:38:05.269Z,95297.25
2024-05-09T23:43:03.737Z,95310.47
2024-05-09T23:45:31.235Z,95288.41
2024-05-09T23:47:58.573Z,95307.03
2024-05-09T23:50:33.628Z,95290.50
2024-05-09T23:53:03.915Z,95286.31
2024-05-09T23:55:31.930Z,95276.03
2024-05-09T23:57:59.844Z,95277.59
